地図

経路データ

SID SEASON NUMBER BASIN SUBBASIN NAME ISO_TIME NATURE LAT LON WMO_WIND WMO_PRES WMO_AGENCY TRACK_TYPE DIST2LAND LANDFALL IFLAG USA_AGENCY USA_ATCF_ID USA_LAT USA_LON USA_RECORD USA_STATUS USA_WIND USA_PRES USA_SSHS USA_R34_NE USA_R34_SE USA_R34_SW USA_R34_NW USA_R50_NE USA_R50_SE USA_R50_SW USA_R50_NW USA_R64_NE USA_R64_SE USA_R64_SW USA_R64_NW USA_POCI USA_ROCI USA_RMW USA_EYE TOKYO_LAT TOKYO_LON TOKYO_GRADE TOKYO_WIND TOKYO_PRES TOKYO_R50_DIR TOKYO_R50_LONG TOKYO_R50_SHORT TOKYO_R30_DIR TOKYO_R30_LONG TOKYO_R30_SHORT TOKYO_LAND CMA_LAT CMA_LON CMA_CAT CMA_WIND CMA_PRES HKO_LAT HKO_LON HKO_CAT HKO_WIND HKO_PRES NEWDELHI_LAT NEWDELHI_LON NEWDELHI_GRADE NEWDELHI_WIND NEWDELHI_PRES NEWDELHI_CI NEWDELHI_DP NEWDELHI_POCI REUNION_LAT REUNION_LON REUNION_TYPE REUNION_WIND REUNION_PRES REUNION_TNUM REUNION_CI REUNION_RMW REUNION_R34_NE REUNION_R34_SE REUNION_R34_SW REUNION_R34_NW REUNION_R50_NE REUNION_R50_SE REUNION_R50_SW REUNION_R50_NW REUNION_R64_NE REUNION_R64_SE REUNION_R64_SW REUNION_R64_NW BOM_LAT BOM_LON BOM_TYPE BOM_WIND BOM_PRES BOM_TNUM BOM_CI BOM_RMW BOM_R34_NE BOM_R34_SE BOM_R34_SW BOM_R34_NW BOM_R50_NE BOM_R50_SE BOM_R50_SW BOM_R50_NW BOM_R64_NE BOM_R64_SE BOM_R64_SW BOM_R64_NW BOM_ROCI BOM_POCI BOM_EYE BOM_POS_METHOD BOM_PRES_METHOD NADI_LAT NADI_LON NADI_CAT NADI_WIND NADI_PRES WELLINGTON_LAT WELLINGTON_LON WELLINGTON_WIND WELLINGTON_PRES DS824_LAT DS824_LON DS824_STAGE DS824_WIND DS824_PRES TD9636_LAT TD9636_LON TD9636_STAGE TD9636_WIND TD9636_PRES TD9635_LAT TD9635_LON TD9635_WIND TD9635_PRES TD9635_ROCI NEUMANN_LAT NEUMANN_LON NEUMANN_CLASS NEUMANN_WIND NEUMANN_PRES MLC_LAT MLC_LON MLC_CLASS MLC_WIND MLC_PRES USA_GUST BOM_GUST BOM_GUST_PER REUNION_GUST REUNION_GUST_PER USA_SEAHGT USA_SEARAD_NE USA_SEARAD_SE USA_SEARAD_SW USA_SEARAD_NW STORM_SPEED STORM_DIR
1882231N21089 1882 23 NI BB NOT_NAMED 1882-08-19 00:00:00 TS 21.0000 89.0000 main 67 67 _________O____ -1 21.0000 89.0000 TC 30 6 268
1882231N21089 1882 23 NI BB NOT_NAMED 1882-08-19 03:00:00 TS 20.9903 88.6617 main 70 67 _________PO___ -1 20.9854 88.4925 TC 30 21.0000 89.0000 1 7 270
1882231N21089 1882 23 NI BB NOT_NAMED 1882-08-19 06:00:00 TS 20.9966 88.2280 main 67 67 _________OP___ -1 21.0000 88.0000 TC 30 20.9916 88.5701 1 8 274
1882231N21089 1882 23 NI BB NOT_NAMED 1882-08-19 09:00:00 TS 21.0425 87.7752 main 78 45 _________PP___ -1 21.0696 87.5223 TC 30 21.0063 88.1124 1 9 279
1882231N21089 1882 23 NI BB NOT_NAMED 1882-08-19 12:00:00 TS 21.1339 87.2993 main 45 0 _________OP___ -1 21.2000 87.0000 TC 30 21.0679 87.5986 1 10 283
1882231N21089 1882 23 NI BB NOT_NAMED 1882-08-19 15:00:00 TS 21.2813 86.6824 main 0 0 _________PO___ -1 21.3626 86.3648 TC 30 21.2000 87.0000 1 13 287
1882231N21089 1882 23 NI BB NOT_NAMED 1882-08-19 18:00:00 TS 21.5081 86.0039 main 0 0 _________OP___ -1 21.6000 85.7000 TC 30 21.4162 86.3077 1 14 293
1882231N21089 1882 23 NI BB NOT_NAMED 1882-08-19 21:00:00 TS 21.8177 85.2958 main 0 0 _________PP___ -1 21.9428 84.9958 TC 30 21.6927 85.5959 1 13 298
1882231N21089 1882 23 NI BB NOT_NAMED 1882-08-20 00:00:00 TS 22.1487 84.7304 main 0 0 _________OP___ -1 22.3000 84.5000 TC 30 21.9974 84.9608 1 10 309
1882231N21089 1882 23 NI BB NOT_NAMED 1882-08-20 03:00:00 TS 22.4323 84.4797 main 0 0 _________PO___ -1 22.5647 84.4593 TC 30 22.3000 84.5000 1 6 339
1882231N21089 1882 23 NI BB NOT_NAMED 1882-08-20 06:00:00 TS 22.6838 84.5044 main 0 0 _________OP___ -1 22.8000 84.6000 TC 30 22.5676 84.4088 1 5 11
1882231N21089 1882 23 NI BB NOT_NAMED 1882-08-20 09:00:00 TS 22.9464 84.5807 main 0 0 _________PP___ -1 23.0648 84.6748 TC 30 22.8279 84.4866 1 5 10
1882231N21089 1882 23 NI BB NOT_NAMED 1882-08-20 12:00:00 TS 23.1871 84.5982 main 0 0 _________OP___ -1 23.3000 84.6000 TC 30 23.0742 84.5965 1 5 339
1882231N21089 1882 23 NI BB NOT_NAMED 1882-08-20 15:00:00 TS 23.3789 84.4050 main 0 0 _________PO___ -1 23.4578 84.2100 TC 30 23.3000 84.6000 1 7 303
1882231N21089 1882 23 NI BB NOT_NAMED 1882-08-20 18:00:00 TS 23.5530 83.9783 main 0 0 _________OP___ -1 23.6000 83.7000 TC 30 23.5061 84.2567 1 9 294
1882231N21089 1882 23 NI BB NOT_NAMED 1882-08-20 21:00:00 TS 23.7448 83.5220 main 0 0 _________PP___ -1 23.8001 83.2477 TC 30 23.6896 83.7964 1 9 295
1882231N21089 1882 23 NI BB NOT_NAMED 1882-08-21 00:00:00 TS 23.9265 83.1064 main 0 0 _________OP___ -1 24.0000 82.9000 TC 30 23.8530 83.3128 1 7 298
1882231N21089 1882 23 NI BB NOT_NAMED 1882-08-21 03:00:00 TS 24.0824 82.8311 main 0 0 _________PO___ -1 24.1648 82.7623 TC 30 24.0000 82.9000 1 5 308
1882231N21089 1882 23 NI BB NOT_NAMED 1882-08-21 06:00:00 TS 24.2213 82.6941 main 0 0 _________OP___ -1 24.3000 82.7000 TC 30 24.1427 82.6881 1 4 316
1882231N21089 1882 23 NI BB NOT_NAMED 1882-08-21 09:00:00 TS 24.3396 82.5546 main 0 0 _________PP___ -1 24.4075 82.5500 TC 30 24.2716 82.5592 1 3 314
1882231N21089 1882 23 NI BB NOT_NAMED 1882-08-21 12:00:00 TS 24.4449 82.4379 main 0 0 _________OP___ -1 24.5000 82.4000 TC 30 24.3898 82.4758 1 3 319
1882231N21089 1882 23 NI BB NOT_NAMED 1882-08-21 15:00:00 TS 24.5500 82.3500 main 0 0 _________PO___ -1 24.6000 82.2999 TC 30 24.5000 82.4000 1 3 320
1882231N21089 1882 23 NI BB NOT_NAMED 1882-08-21 18:00:00 TS 24.6494 82.2475 main 0 0 _________OP___ -1 24.7000 82.2000 TC 30 24.5989 82.2950 1 3 313
1882231N21089 1882 23 NI BB NOT_NAMED 1882-08-21 21:00:00 TS 24.7423 82.1297 main 0 0 _________PP___ -1 24.7924 82.0724 TC 30 24.6922 82.1870 1 3 309
1882231N21089 1882 23 NI BB NOT_NAMED 1882-08-22 00:00:00 TS 24.8447 81.9803 main 0 0 _________OP___ -1 24.9000 81.9000 TC 30 24.7894 82.0606 1 4 306
1882231N21089 1882 23 NI BB NOT_NAMED 1882-08-22 03:00:00 TS 24.9713 81.7825 main 0 0 _________PO___ -1 25.0425 81.6650 TC 30 24.9000 81.9000 1 5 304
1882231N21089 1882 23 NI BB NOT_NAMED 1882-08-22 06:00:00 TS 25.1138 81.5450 main 0 0 _________OP___ -1 25.2000 81.4000 TC 30 25.0276 81.6899 1 5 303
1882231N21089 1882 23 NI BB NOT_NAMED 1882-08-22 09:00:00 TS 25.2562 81.3011 main 0 0 _________PP___ -1 25.3424 81.1574 TC 30 25.1701 81.4449 1 5 303
1882231N21089 1882 23 NI BB NOT_NAMED 1882-08-22 12:00:00 TS 25.4138 81.0387 main 0 0 _________OP___ -1 25.5000 80.9000 TC 30 25.3275 81.1773 1 6 304
1882231N21089 1882 23 NI BB NOT_NAMED 1882-08-22 15:00:00 TS 25.5963 80.7500 main 0 0 _________PO___ -1 25.6925 80.6000 TC 30 25.5000 80.9000 1 6 306
1882231N21089 1882 23 NI BB NOT_NAMED 1882-08-22 18:00:00 TS 25.7783 80.4847 main 0 0 _________OP___ -1 25.9000 80.3000 TC 30 25.6870 80.6232 1 6 308
1882231N21089 1882 23 NI BB NOT_NAMED 1882-08-22 21:00:00 TS 25.9722 80.2240 main 0 0 _________PP___ -1 26.1025 80.0376 TC 30 25.8853 80.3483 1 6 310
1882231N21089 1882 23 NI BB NOT_NAMED 1882-08-23 00:00:00 TS 26.1606 79.9828 main 0 0 _________OP___ -1 26.3000 79.8000 TC 30 26.0909 80.0742 1 5 311
1882231N21089 1882 23 NI BB NOT_NAMED 1882-08-23 03:00:00 NR 26.3000 79.8000 main 0 __________O___ -1 TC 26.3000 79.8000 1 4 311

IBTrACS Databaseについて

本データベースは、米国NOAAが公開する1842年以降の世界の熱帯低気圧のベストトラックデータアーカイブInternational Best Track Archive for Climate Stewardship (IBTrACS)を、ウェブで閲覧しやすい形式に変換したものです。

最終更新日:2021-12-06